Time,TemperatureF,DewpointF,PressureIn,WindDirection,WindDirectionDegrees,WindSpeedMPH,WindSpeedGustMPH,Humidity,HourlyPrecipIn,Conditions,Clouds,dailyrainin,SoftwareType,DateUTC
2013-08-18 00:02:00,59.0,54.2,30.11,SE,134,0.0,0.0,84,0.00,,,0.00,Wunderground v.1.15,2013-08-18 05:02:00,
2013-08-18 00:07:00,59.0,54.5,30.11,SE,134,0.0,0.0,85,0.00,,,0.00,Wunderground v.1.15,2013-08-18 05:07:00,
2013-08-18 00:13:00,59.4,55.2,30.10,SE,134,0.0,0.0,86,0.00,,,0.00,Wunderground v.1.15,2013-08-18 05:13:00,
2013-08-18 00:18:00,59.6,55.1,30.11,SE,134,0.0,0.0,85,0.00,,,0.00,Wunderground v.1.15,2013-08-18 05:18:00,
2013-08-18 00:23:00,59.6,54.8,30.10,SE,134,0.0,0.0,84,0.00,,,0.00,Wunderground v.1.15,2013-08-18 05:23:00,
2013-08-18 00:28:00,59.3,54.1,30.10,SE,134,0.0,0.0,83,0.00,,,0.00,Wunderground v.1.15,2013-08-18 05:28:00,
2013-08-18 00:33:00,59.0,53.8,30.11,SE,134,0.0,0.0,83,0.00,,,0.00,Wunderground v.1.15,2013-08-18 05:33:00,
2013-08-18 00:39:00,59.0,54.2,30.11,SE,134,0.0,0.0,84,0.00,,,0.00,Wunderground v.1.15,2013-08-18 05:39:00,
2013-08-18 00:44:00,58.7,53.9,30.11,SE,134,0.0,0.0,84,0.00,,,0.00,Wunderground v.1.15,2013-08-18 05:44:00,
2013-08-18 00:49:00,58.5,54.0,30.11,SE,134,0.0,0.0,85,0.00,,,0.00,Wunderground v.1.15,2013-08-18 05:49:00,
2013-08-18 00:54:00,58.3,53.8,30.11,SE,134,0.0,0.0,85,0.00,,,0.00,Wunderground v.1.15,2013-08-18 05:54:00,
2013-08-18 00:59:00,58.1,53.6,30.11,SE,134,0.0,0.0,85,0.00,,,0.00,Wunderground v.1.15,2013-08-18 05:59:00,
2013-08-18 01:05:00,58.1,53.9,30.11,SE,134,0.0,0.0,86,0.00,,,0.00,Wunderground v.1.15,2013-08-18 06:05:00,
2013-08-18 01:10:00,58.1,53.9,30.11,SE,134,0.0,0.0,86,0.00,,,0.00,Wunderground v.1.15,2013-08-18 06:10:00,
2013-08-18 01:15:00,58.0,54.2,30.11,SE,134,0.0,0.0,87,0.00,,,0.00,Wunderground v.1.15,2013-08-18 06:15:00,
2013-08-18 01:20:00,58.1,54.2,30.11,SE,134,0.0,0.0,87,0.00,,,0.00,Wunderground v.1.15,2013-08-18 06:20:00,
2013-08-18 01:25:00,58.0,54.2,30.11,SE,134,0.0,0.0,87,0.00,,,0.00,Wunderground v.1.15,2013-08-18 06:25:00,
2013-08-18 01:31:00,57.9,54.1,30.11,SE,134,0.0,0.0,87,0.00,,,0.00,Wunderground v.1.15,2013-08-18 06:31:00,
2013-08-18 01:36:00,57.8,54.0,30.11,SE,134,0.0,0.0,87,0.00,,,0.00,Wunderground v.1.15,2013-08-18 06:36:00,
2013-08-18 01:41:00,57.6,53.8,30.11,SE,134,0.0,0.0,87,0.00,,,0.00,Wunderground v.1.15,2013-08-18 06:41:00,
2013-08-18 01:46:00,57.2,53.0,30.11,SE,134,0.0,0.0,86,0.00,,,0.00,Wunderground v.1.15,2013-08-18 06:46:00,
2013-08-18 01:51:00,56.9,53.1,30.11,SE,134,0.0,0.0,87,0.00,,,0.00,Wunderground v.1.15,2013-08-18 06:51:00,
2013-08-18 01:57:00,56.8,53.0,30.11,SE,134,0.0,0.0,87,0.00,,,0.00,Wunderground v.1.15,2013-08-18 06:57:00,
2013-08-18 02:02:00,57.0,53.5,30.11,SE,134,0.0,0.0,88,0.00,,,0.00,Wunderground v.1.15,2013-08-18 07:02:00,
2013-08-18 02:07:00,57.2,54.0,30.11,SE,134,0.0,0.0,89,0.00,,,0.00,Wunderground v.1.15,2013-08-18 07:07:00,
2013-08-18 02:12:00,57.3,54.1,30.11,SE,134,0.0,0.0,89,0.00,,,0.00,Wunderground v.1.15,2013-08-18 07:12:00,
2013-08-18 02:17:00,57.2,54.0,30.11,SE,134,0.0,0.0,89,0.00,,,0.00,Wunderground v.1.15,2013-08-18 07:17:00,
2013-08-18 02:22:00,57.1,53.6,30.11,SE,134,0.0,0.0,88,0.00,,,0.00,Wunderground v.1.15,2013-08-18 07:22:00,
2013-08-18 02:27:00,56.9,53.4,30.11,SE,134,0.0,0.0,88,0.00,,,0.00,Wunderground v.1.15,2013-08-18 07:27:00,
2013-08-18 02:32:00,56.6,53.1,30.11,SE,134,0.0,0.0,88,0.00,,,0.00,Wunderground v.1.15,2013-08-18 07:32:00,
2013-08-18 02:37:00,56.4,52.9,30.11,SE,134,0.0,0.0,88,0.00,,,0.00,Wunderground v.1.15,2013-08-18 07:37:00,
2013-08-18 02:42:00,56.4,53.2,30.10,SE,134,0.0,0.0,89,0.00,,,0.00,Wunderground v.1.15,2013-08-18 07:42:00,
2013-08-18 02:47:00,56.4,53.2,30.10,SE,134,0.0,0.0,89,0.00,,,0.00,Wunderground v.1.15,2013-08-18 07:47:00,
2013-08-18 02:52:00,56.3,53.1,30.11,SE,134,0.0,0.0,89,0.00,,,0.00,Wunderground v.1.15,2013-08-18 07:52:00,
2013-08-18 02:57:00,56.2,53.0,30.11,SE,134,0.0,0.0,89,0.00,,,0.00,Wunderground v.1.15,2013-08-18 07:57:00,
2013-08-18 03:02:00,56.2,53.0,30.10,SE,134,0.0,0.0,89,0.00,,,0.00,Wunderground v.1.15,2013-08-18 08:02:00,
2013-08-18 03:07:00,56.4,53.5,30.11,SE,134,0.0,0.0,90,0.00,,,0.00,Wunderground v.1.15,2013-08-18 08:07:00,
2013-08-18 03:12:00,56.4,53.2,30.11,SE,134,0.0,0.0,89,0.00,,,0.00,Wunderground v.1.15,2013-08-18 08:12:00,
2013-08-18 03:17:00,56.2,53.0,30.11,SE,134,0.0,0.0,89,0.00,,,0.00,Wunderground v.1.15,2013-08-18 08:17:00,
2013-08-18 03:22:00,56.0,52.8,30.10,SE,134,0.0,0.0,89,0.00,,,0.00,Wunderground v.1.15,2013-08-18 08:22:00,
2013-08-18 03:27:00,55.8,52.6,30.10,SE,134,0.0,0.0,89,0.00,,,0.00,Wunderground v.1.15,2013-08-18 08:27:00,
2013-08-18 03:32:00,55.7,52.5,30.10,SE,134,0.0,0.0,89,0.00,,,0.00,Wunderground v.1.15,2013-08-18 08:32:00,
2013-08-18 03:37:00,55.4,52.2,30.11,SE,134,0.0,0.0,89,0.00,,,0.00,Wunderground v.1.15,2013-08-18 08:37:00,
2013-08-18 03:42:00,55.2,52.0,30.11,SE,134,0.0,0.0,89,0.00,,,0.00,Wunderground v.1.15,2013-08-18 08:42:00,
2013-08-18 03:47:00,55.2,52.0,30.11,SE,134,0.0,0.0,89,0.00,,,0.00,Wunderground v.1.15,2013-08-18 08:47:00,
2013-08-18 03:52:00,55.0,51.8,30.11,SE,134,0.0,0.0,89,0.00,,,0.00,Wunderground v.1.15,2013-08-18 08:52:00,
2013-08-18 03:57:00,54.9,51.7,30.11,SE,134,0.0,0.0,89,0.00,,,0.00,Wunderground v.1.15,2013-08-18 08:57:00,
2013-08-18 04:02:00,54.7,51.5,30.11,SE,134,0.0,0.0,89,0.00,,,0.00,Wunderground v.1.15,2013-08-18 09:02:00,
2013-08-18 04:07:00,54.5,51.3,30.11,SE,134,0.0,0.0,89,0.00,,,0.00,Wunderground v.1.15,2013-08-18 09:07:00,
2013-08-18 04:12:00,54.4,51.5,30.11,SE,134,0.0,0.0,90,0.00,,,0.00,Wunderground v.1.15,2013-08-18 09:12:00,
2013-08-18 04:17:00,54.3,51.4,30.11,SE,134,0.0,0.0,90,0.00,,,0.00,Wunderground v.1.15,2013-08-18 09:17:00,
2013-08-18 04:22:00,54.1,51.2,30.11,SE,134,0.0,0.0,90,0.00,,,0.00,Wunderground v.1.15,2013-08-18 09:22:00,
2013-08-18 04:27:00,54.0,51.1,30.11,SE,134,0.0,0.0,90,0.00,,,0.00,Wunderground v.1.15,2013-08-18 09:27:00,
2013-08-18 04:32:00,54.1,51.2,30.11,SE,134,0.0,0.0,90,0.00,,,0.00,Wunderground v.1.15,2013-08-18 09:32:00,
2013-08-18 04:37:00,54.2,51.3,30.11,SE,134,0.0,0.0,90,0.00,,,0.00,Wunderground v.1.15,2013-08-18 09:37:00,
2013-08-18 04:42:00,54.3,51.4,30.11,SE,134,0.0,0.0,90,0.00,,,0.00,Wunderground v.1.15,2013-08-18 09:42:00,
2013-08-18 04:47:00,54.3,51.4,30.11,SE,134,0.0,0.0,90,0.00,,,0.00,Wunderground v.1.15,2013-08-18 09:47:00,
2013-08-18 04:52:00,54.4,51.8,30.11,SE,134,0.0,0.0,91,0.00,,,0.00,Wunderground v.1.15,2013-08-18 09:52:00,
2013-08-18 04:57:00,54.4,51.8,30.11,SE,134,0.0,0.0,91,0.00,,,0.00,Wunderground v.1.15,2013-08-18 09:57:00,
2013-08-18 05:02:00,54.4,51.8,30.12,SE,134,0.0,0.0,91,0.00,,,0.00,Wunderground v.1.15,2013-08-18 10:02:00,
2013-08-18 05:07:00,54.5,51.9,30.12,SE,134,0.0,0.0,91,0.00,,,0.00,Wunderground v.1.15,2013-08-18 10:07:00,
2013-08-18 05:12:00,54.4,51.8,30.12,SE,134,0.0,0.0,91,0.00,,,0.00,Wunderground v.1.15,2013-08-18 10:12:00,
2013-08-18 05:17:00,54.2,51.3,30.12,SE,134,0.0,0.0,90,0.00,,,0.00,Wunderground v.1.15,2013-08-18 10:17:00,
2013-08-18 05:22:00,53.9,51.0,30.12,SE,134,0.0,0.0,90,0.00,,,0.00,Wunderground v.1.15,2013-08-18 10:22:00,
2013-08-18 05:28:00,53.5,50.6,30.13,SE,134,0.0,0.0,90,0.00,,,0.00,Wunderground v.1.15,2013-08-18 10:28:00,
2013-08-18 05:33:00,53.2,50.3,30.13,SE,134,0.0,0.0,90,0.00,,,0.00,Wunderground v.1.15,2013-08-18 10:33:00,
2013-08-18 05:38:00,53.0,50.1,30.13,SE,134,0.0,0.0,90,0.00,,,0.00,Wunderground v.1.15,2013-08-18 10:38:00,
2013-08-18 05:43:00,53.0,50.1,30.13,SE,134,0.0,0.0,90,0.00,,,0.00,Wunderground v.1.15,2013-08-18 10:43:00,
2013-08-18 05:48:00,53.0,50.1,30.13,SE,134,0.0,0.0,90,0.00,,,0.00,Wunderground v.1.15,2013-08-18 10:48:00,
2013-08-18 05:53:00,52.9,50.0,30.13,SE,134,0.0,0.0,90,0.00,,,0.00,Wunderground v.1.15,2013-08-18 10:53:00,
2013-08-18 05:58:00,52.8,49.9,30.13,SE,134,0.0,0.0,90,0.00,,,0.00,Wunderground v.1.15,2013-08-18 10:58:00,
2013-08-18 06:03:00,52.7,50.1,30.13,SE,134,0.0,0.0,91,0.00,,,0.00,Wunderground v.1.15,2013-08-18 11:03:00,
2013-08-18 06:08:00,52.6,50.0,30.13,SE,134,0.0,0.0,91,0.00,,,0.00,Wunderground v.1.15,2013-08-18 11:08:00,
2013-08-18 06:13:00,52.5,49.9,30.14,SE,134,0.0,0.0,91,0.00,,,0.00,Wunderground v.1.15,2013-08-18 11:13:00,
2013-08-18 06:18:00,52.6,50.0,30.14,SE,134,0.0,0.0,91,0.00,,,0.00,Wunderground v.1.15,2013-08-18 11:18:00,
2013-08-18 06:23:00,52.6,50.0,30.14,SE,134,0.0,0.0,91,0.00,,,0.00,Wunderground v.1.15,2013-08-18 11:23:00,
2013-08-18 06:28:00,52.8,50.5,30.14,SE,134,0.0,0.0,92,0.00,,,0.00,Wunderground v.1.15,2013-08-18 11:28:00,
2013-08-18 06:33:00,53.0,50.7,30.14,SE,134,0.0,0.0,92,0.00,,,0.00,Wunderground v.1.15,2013-08-18 11:33:00,
2013-08-18 06:38:00,53.1,50.5,30.14,SE,134,0.0,0.0,91,0.00,,,0.00,Wunderground v.1.15,2013-08-18 11:38:00,
2013-08-18 06:43:00,53.2,50.6,30.14,SE,134,0.0,0.0,91,0.00,,,0.00,Wunderground v.1.15,2013-08-18 11:43:00,
2013-08-18 06:48:00,53.3,50.7,30.14,SE,134,0.0,0.0,91,0.00,,,0.00,Wunderground v.1.15,2013-08-18 11:48:00,
2013-08-18 06:53:00,53.3,50.7,30.14,SE,134,0.0,0.0,91,0.00,,,0.00,Wunderground v.1.15,2013-08-18 11:53:00,
2013-08-18 06:58:00,53.1,50.5,30.14,SE,134,0.0,0.0,91,0.00,,,0.00,Wunderground v.1.15,2013-08-18 11:58:00,
2013-08-18 07:03:00,53.0,50.4,30.14,SE,134,0.0,0.0,91,0.00,,,0.00,Wunderground v.1.15,2013-08-18 12:03:00,
2013-08-18 07:08:00,53.0,50.4,30.14,SE,134,0.0,0.0,91,0.00,,,0.00,Wunderground v.1.15,2013-08-18 12:08:00,
2013-08-18 07:13:00,53.2,50.6,30.14,SE,134,0.0,0.0,91,0.00,,,0.00,Wunderground v.1.15,2013-08-18 12:13:00,
2013-08-18 07:18:00,53.5,51.2,30.15,SE,134,0.0,0.0,92,0.00,,,0.00,Wunderground v.1.15,2013-08-18 12:18:00,
2013-08-18 07:23:00,53.9,51.6,30.15,SE,134,0.0,0.0,92,0.00,,,0.00,Wunderground v.1.15,2013-08-18 12:23:00,
2013-08-18 07:28:00,54.5,52.5,30.15,SE,134,0.0,0.0,93,0.00,,,0.00,Wunderground v.1.15,2013-08-18 12:28:00,
2013-08-18 07:33:00,55.3,53.3,30.15,SE,134,0.0,0.0,93,0.00,,,0.00,Wunderground v.1.15,2013-08-18 12:33:00,
2013-08-18 07:38:00,55.8,53.5,30.15,SE,134,0.0,0.0,92,0.00,,,0.00,Wunderground v.1.15,2013-08-18 12:38:00,
2013-08-18 07:43:00,56.7,54.7,30.15,SE,134,0.0,0.0,93,0.00,,,0.00,Wunderground v.1.15,2013-08-18 12:43:00,
2013-08-18 07:48:00,57.9,55.9,30.15,SE,134,0.0,0.0,93,0.00,,,0.00,Wunderground v.1.15,2013-08-18 12:48:00,
2013-08-18 07:53:00,58.9,56.6,30.15,SE,134,0.0,0.0,92,0.00,,,0.00,Wunderground v.1.15,2013-08-18 12:53:00,
2013-08-18 07:58:00,59.6,57.3,30.15,SE,134,0.0,0.0,92,0.00,,,0.00,Wunderground v.1.15,2013-08-18 12:58:00,
2013-08-18 08:03:00,60.3,57.7,30.15,SE,134,0.0,0.0,91,0.00,,,0.00,Wunderground v.1.15,2013-08-18 13:03:00,
2013-08-18 08:08:00,60.9,57.6,30.15,SE,134,0.0,0.0,89,0.00,,,0.00,Wunderground v.1.15,2013-08-18 13:08:00,
2013-08-18 08:13:00,61.4,58.1,30.15,SE,134,0.0,0.0,89,0.00,,,0.00,Wunderground v.1.15,2013-08-18 13:13:00,
2013-08-18 08:18:00,62.0,58.4,30.15,SE,134,0.0,0.0,88,0.00,,,0.00,Wunderground v.1.15,2013-08-18 13:18:00,
2013-08-18 08:24:00,62.6,58.7,30.15,SE,134,0.0,0.0,87,0.00,,,0.00,Wunderground v.1.15,2013-08-18 13:24:00,
2013-08-18 08:29:00,63.0,59.1,30.15,SE,134,0.0,0.0,87,0.00,,,0.00,Wunderground v.1.15,2013-08-18 13:29:00,
2013-08-18 08:34:00,63.5,59.2,30.15,SE,134,0.0,0.0,86,0.00,,,0.00,Wunderground v.1.15,2013-08-18 13:34:00,
2013-08-18 08:39:00,64.0,59.7,30.15,SE,134,0.0,0.0,86,0.00,,,0.00,Wunderground v.1.15,2013-08-18 13:39:00,
2013-08-18 08:44:00,64.7,60.1,30.15,SE,134,0.0,0.0,85,0.00,,,0.00,Wunderground v.1.15,2013-08-18 13:44:00,
2013-08-18 08:49:00,65.4,60.4,30.15,SE,134,0.0,0.0,84,0.00,,,0.00,Wunderground v.1.15,2013-08-18 13:49:00,
2013-08-18 08:54:00,65.9,60.2,30.15,SE,134,0.0,0.0,82,0.00,,,0.00,Wunderground v.1.15,2013-08-18 13:54:00,
2013-08-18 08:59:00,66.3,60.6,30.15,SE,134,0.0,0.0,82,0.00,,,0.00,Wunderground v.1.15,2013-08-18 13:59:00,
2013-08-18 09:04:00,66.7,60.3,30.15,SE,134,0.0,0.0,80,0.00,,,0.00,Wunderground v.1.15,2013-08-18 14:04:00,
2013-08-18 09:09:00,67.1,60.7,30.14,SE,134,0.0,0.0,80,0.00,,,0.00,Wunderground v.1.15,2013-08-18 14:09:00,
2013-08-18 09:14:00,67.7,61.0,30.15,SE,134,0.0,0.0,79,0.00,,,0.00,Wunderground v.1.15,2013-08-18 14:14:00,
2013-08-18 09:19:00,68.1,61.3,30.14,SE,134,0.0,0.0,79,0.00,,,0.00,Wunderground v.1.15,2013-08-18 14:19:00,
2013-08-18 09:24:00,68.6,61.1,30.14,SE,134,0.0,0.0,77,0.00,,,0.00,Wunderground v.1.15,2013-08-18 14:24:00,
2013-08-18 09:29:00,69.2,61.7,30.14,SE,134,0.0,0.0,77,0.00,,,0.00,Wunderground v.1.15,2013-08-18 14:29:00,
2013-08-18 09:34:00,69.7,61.4,30.14,SE,134,0.0,0.0,75,0.00,,,0.00,Wunderground v.1.15,2013-08-18 14:34:00,
2013-08-18 09:39:00,70.1,61.8,30.14,SE,134,0.0,0.0,75,0.00,,,0.00,Wunderground v.1.15,2013-08-18 14:39:00,
2013-08-18 09:44:00,70.5,62.2,30.14,SE,134,0.0,0.0,75,0.00,,,0.00,Wunderground v.1.15,2013-08-18 14:44:00,
2013-08-18 09:49:00,70.9,61.8,30.14,SE,134,0.0,0.0,73,0.00,,,0.00,Wunderground v.1.15,2013-08-18 14:49:00,
2013-08-18 09:54:00,71.3,61.8,30.14,SE,134,0.0,0.0,72,0.00,,,0.00,Wunderground v.1.15,2013-08-18 14:54:00,
2013-08-18 09:59:00,71.7,61.8,30.14,SE,134,0.0,0.0,71,0.00,,,0.00,Wunderground v.1.15,2013-08-18 14:59:00,
2013-08-18 10:04:00,72.1,61.8,30.14,SE,134,0.0,0.0,70,0.00,,,0.00,Wunderground v.1.15,2013-08-18 15:04:00,
2013-08-18 10:09:00,72.6,61.8,30.14,SE,134,0.0,0.0,69,0.00,,,0.00,Wunderground v.1.15,2013-08-18 15:09:00,
2013-08-18 10:14:00,72.9,62.1,30.14,SE,134,0.0,0.0,69,0.00,,,0.00,Wunderground v.1.15,2013-08-18 15:14:00,
2013-08-18 10:19:00,73.2,61.6,30.14,SE,134,0.0,5.0,67,0.00,,,0.00,Wunderground v.1.15,2013-08-18 15:19:00,
2013-08-18 10:24:00,73.5,61.0,30.13,SE,134,0.0,0.0,65,0.00,,,0.00,Wunderground v.1.15,2013-08-18 15:24:00,
2013-08-18 10:29:00,74.0,60.2,30.13,SE,134,0.0,1.0,62,0.00,,,0.00,Wunderground v.1.15,2013-08-18 15:29:00,
2013-08-18 10:34:00,74.3,60.4,30.13,SE,134,4.0,7.0,62,0.00,,,0.00,Wunderground v.1.15,2013-08-18 15:34:00,
2013-08-18 10:39:00,74.4,60.5,30.13,SE,134,0.0,7.0,62,0.00,,,0.00,Wunderground v.1.15,2013-08-18 15:39:00,
2013-08-18 10:44:00,74.8,61.4,30.13,SE,136,0.0,4.0,63,0.00,,,0.00,Wunderground v.1.15,2013-08-18 15:44:00,
2013-08-18 10:49:00,75.2,61.7,30.13,SE,138,0.0,4.0,63,0.00,,,0.00,Wunderground v.1.15,2013-08-18 15:49:00,
2013-08-18 10:54:00,75.3,60.9,30.13,SE,138,0.0,0.0,61,0.00,,,0.00,Wunderground v.1.15,2013-08-18 15:54:00,
2013-08-18 10:59:00,75.5,61.1,30.13,SSE,157,0.0,7.0,61,0.00,,,0.00,Wunderground v.1.15,2013-08-18 15:59:00,
2013-08-18 11:04:00,75.7,59.4,30.13,SSE,159,4.0,6.0,57,0.00,,,0.00,Wunderground v.1.15,2013-08-18 16:04:00,
2013-08-18 11:10:00,75.9,59.6,30.12,SSE,155,3.0,3.0,57,0.00,,,0.00,Wunderground v.1.15,2013-08-18 16:10:00,
2013-08-18 11:15:00,76.0,59.7,30.13,SSE,167,4.0,7.0,57,0.00,,,0.00,Wunderground v.1.15,2013-08-18 16:15:00,
2013-08-18 11:20:00,76.1,58.8,30.12,SSE,166,2.0,4.0,55,0.00,,,0.00,Wunderground v.1.15,2013-08-18 16:20:00,
2013-08-18 11:25:00,76.4,59.0,30.12,South,180,4.0,10.0,55,0.00,,,0.00,Wunderground v.1.15,2013-08-18 16:25:00,
2013-08-18 11:30:00,76.4,59.5,30.12,SSE,155,1.0,4.0,56,0.00,,,0.00,Wunderground v.1.15,2013-08-18 16:30:00,
2013-08-18 11:35:00,76.3,59.4,30.12,SSE,160,4.0,10.0,56,0.00,,,0.00,Wunderground v.1.15,2013-08-18 16:35:00,
2013-08-18 11:40:00,76.6,59.2,30.12,South,169,0.0,4.0,55,0.00,,,0.00,Wunderground v.1.15,2013-08-18 16:40:00,
2013-08-18 11:45:00,77.1,60.7,30.12,South,169,4.0,6.0,57,0.00,,,0.00,Wunderground v.1.15,2013-08-18 16:45:00,
2013-08-18 11:50:00,77.1,59.7,30.12,South,188,0.0,3.0,55,0.00,,,0.00,Wunderground v.1.15,2013-08-18 16:50:00,
2013-08-18 11:55:00,77.5,60.1,30.12,South,181,10.0,10.0,55,0.00,,,0.00,Wunderground v.1.15,2013-08-18 16:55:00,
2013-08-18 12:00:00,77.5,60.1,30.11,South,180,4.0,5.0,55,0.00,,,0.00,Wunderground v.1.15,2013-08-18 17:00:00,
2013-08-18 12:05:00,77.4,58.9,30.12,South,170,6.0,13.0,53,0.00,,,0.00,Wunderground v.1.15,2013-08-18 17:05:00,
2013-08-18 12:10:00,77.4,59.5,30.11,SSE,161,5.0,7.0,54,0.00,,,0.00,Wunderground v.1.15,2013-08-18 17:10:00,
2013-08-18 12:15:00,77.3,59.4,30.11,SE,142,9.0,10.0,54,0.00,,,0.00,Wunderground v.1.15,2013-08-18 17:15:00,
2013-08-18 12:20:00,77.6,60.2,30.11,SSE,163,5.0,10.0,55,0.00,,,0.00,Wunderground v.1.15,2013-08-18 17:20:00,
2013-08-18 12:25:00,78.0,60.5,30.11,South,171,0.0,10.0,55,0.00,,,0.00,Wunderground v.1.15,2013-08-18 17:25:00,
2013-08-18 12:30:00,78.0,60.0,30.11,South,169,3.0,6.0,54,0.00,,,0.00,Wunderground v.1.15,2013-08-18 17:30:00,
2013-08-18 12:35:00,78.0,58.9,30.11,SSE,162,9.0,12.0,52,0.00,,,0.00,Wunderground v.1.15,2013-08-18 17:35:00,
2013-08-18 12:40:00,78.2,59.7,30.11,South,170,3.0,9.0,53,0.00,,,0.00,Wunderground v.1.15,2013-08-18 17:40:00,
2013-08-18 12:45:00,78.1,59.6,30.11,South,175,6.0,9.0,53,0.00,,,0.00,Wunderground v.1.15,2013-08-18 17:45:00,
2013-08-18 12:51:00,78.4,60.4,30.11,South,175,5.0,7.0,54,0.00,,,0.00,Wunderground v.1.15,2013-08-18 17:51:00,
2013-08-18 12:56:00,77.9,58.9,30.11,South,172,0.0,9.0,52,0.00,,,0.00,Wunderground v.1.15,2013-08-18 17:56:00,
2013-08-18 13:01:00,77.6,59.6,30.11,South,171,4.0,4.0,54,0.00,,,0.00,Wunderground v.1.15,2013-08-18 18:01:00,
2013-08-18 13:06:00,78.2,59.7,30.10,SSE,163,5.0,9.0,53,0.00,,,0.00,Wunderground v.1.15,2013-08-18 18:06:00,
2013-08-18 13:11:00,78.4,58.8,30.10,South,173,1.0,4.0,51,0.00,,,0.00,Wunderground v.1.15,2013-08-18 18:11:00,
2013-08-18 13:16:00,78.6,59.0,30.10,SSE,168,0.0,9.0,51,0.00,,,0.00,Wunderground v.1.15,2013-08-18 18:16:00,
2013-08-18 13:21:00,78.9,59.2,30.10,SSE,163,4.0,9.0,51,0.00,,,0.00,Wunderground v.1.15,2013-08-18 18:21:00,
2013-08-18 13:26:00,78.7,58.5,30.10,SSE,163,0.0,9.0,50,0.00,,,0.00,Wunderground v.1.15,2013-08-18 18:26:00,
2013-08-18 13:31:00,78.7,59.6,30.10,South,171,4.0,6.0,52,0.00,,,0.00,Wunderground v.1.15,2013-08-18 18:31:00,
2013-08-18 13:36:00,79.2,60.1,30.10,South,186,3.0,10.0,52,0.00,,,0.00,Wunderground v.1.15,2013-08-18 18:36:00,
2013-08-18 13:41:00,79.3,59.0,30.09,South,180,4.0,6.0,50,0.00,,,0.00,Wunderground v.1.15,2013-08-18 18:41:00,
2013-08-18 13:46:00,79.2,59.0,30.09,South,180,0.0,6.0,50,0.00,,,0.00,Wunderground v.1.15,2013-08-18 18:46:00,
2013-08-18 13:51:00,78.7,59.6,30.09,South,174,3.0,4.0,52,0.00,,,0.00,Wunderground v.1.15,2013-08-18 18:51:00,
2013-08-18 13:56:00,78.2,59.1,30.09,South,174,0.0,4.0,52,0.00,,,0.00,Wunderground v.1.15,2013-08-18 18:56:00,
2013-08-18 14:01:00,78.4,59.9,30.09,South,182,10.0,10.0,53,0.00,,,0.00,Wunderground v.1.15,2013-08-18 19:01:00,
2013-08-18 14:06:00,78.8,58.6,30.09,South,180,0.0,10.0,50,0.00,,,0.00,Wunderground v.1.15,2013-08-18 19:06:00,
2013-08-18 14:11:00,79.0,58.8,30.09,South,174,0.0,3.0,50,0.00,,,0.00,Wunderground v.1.15,2013-08-18 19:11:00,
2013-08-18 14:16:00,78.8,59.1,30.08,South,174,0.0,3.0,51,0.00,,,0.00,Wunderground v.1.15,2013-08-18 19:16:00,
2013-08-18 14:21:00,79.1,58.9,30.08,South,176,5.0,5.0,50,0.00,,,0.00,Wunderground v.1.15,2013-08-18 19:21:00,
2013-08-18 14:26:00,79.0,59.3,30.08,South,174,4.0,7.0,51,0.00,,,0.00,Wunderground v.1.15,2013-08-18 19:26:00,
2013-08-18 14:31:00,79.0,59.3,30.08,South,174,0.0,2.0,51,0.00,,,0.00,Wunderground v.1.15,2013-08-18 19:31:00,
2013-08-18 14:36:00,79.7,60.0,30.08,South,182,0.0,9.0,51,0.00,,,0.00,Wunderground v.1.15,2013-08-18 19:36:00,
2013-08-18 14:41:00,80.6,59.7,30.08,SSW,194,4.0,6.0,49,0.00,,,0.00,Wunderground v.1.15,2013-08-18 19:41:00,
2013-08-18 14:46:00,80.6,59.1,30.08,SSW,198,4.0,10.0,48,0.00,,,0.00,Wunderground v.1.15,2013-08-18 19:46:00,
2013-08-18 14:51:00,80.3,59.4,30.08,SSW,198,0.0,3.0,49,0.00,,,0.00,Wunderground v.1.15,2013-08-18 19:51:00,
2013-08-18 14:56:00,80.3,59.4,30.07,SSW,198,0.0,4.0,49,0.00,,,0.00,Wunderground v.1.15,2013-08-18 19:56:00,
2013-08-18 15:01:00,80.4,58.3,30.07,SSW,195,0.0,1.0,47,0.00,,,0.00,Wunderground v.1.15,2013-08-18 20:01:00,
2013-08-18 15:06:00,80.3,59.4,30.07,SSW,195,0.0,12.0,49,0.00,,,0.00,Wunderground v.1.15,2013-08-18 20:06:00,
2013-08-18 15:11:00,80.2,58.1,30.06,SSW,194,0.0,2.0,47,0.00,,,0.00,Wunderground v.1.15,2013-08-18 20:11:00,
2013-08-18 15:16:00,79.8,58.4,30.06,SSE,162,2.0,9.0,48,0.00,,,0.00,Wunderground v.1.15,2013-08-18 20:16:00,
2013-08-18 15:21:00,80.1,58.6,30.06,South,178,7.0,9.0,48,0.00,,,0.00,Wunderground v.1.15,2013-08-18 20:21:00,
2013-08-18 15:26:00,80.3,58.8,30.06,South,180,0.0,9.0,48,0.00,,,0.00,Wunderground v.1.15,2013-08-18 20:26:00,
2013-08-18 15:31:00,80.1,59.2,30.06,South,186,0.0,4.0,49,0.00,,,0.00,Wunderground v.1.15,2013-08-18 20:31:00,
2013-08-18 15:36:00,79.7,59.4,30.06,South,188,0.0,6.0,50,0.00,,,0.00,Wunderground v.1.15,2013-08-18 20:36:00,
2013-08-18 15:41:00,80.1,59.2,30.06,South,188,0.0,6.0,49,0.00,,,0.00,Wunderground v.1.15,2013-08-18 20:41:00,
2013-08-18 15:46:00,80.3,60.5,30.05,South,184,4.0,9.0,51,0.00,,,0.00,Wunderground v.1.15,2013-08-18 20:46:00,
2013-08-18 15:51:00,80.2,59.3,30.05,SSE,166,3.0,6.0,49,0.00,,,0.00,Wunderground v.1.15,2013-08-18 20:51:00,
2013-08-18 15:56:00,80.3,58.8,30.05,South,171,0.0,9.0,48,0.00,,,0.00,Wunderground v.1.15,2013-08-18 20:56:00,
2013-08-18 16:01:00,80.8,58.7,30.06,South,184,5.0,6.0,47,0.00,,,0.00,Wunderground v.1.15,2013-08-18 21:01:00,
2013-08-18 16:06:00,81.0,60.0,30.06,South,186,9.0,12.0,49,0.00,,,0.00,Wunderground v.1.15,2013-08-18 21:06:00,
2013-08-18 16:11:00,80.9,58.2,30.06,South,174,6.0,6.0,46,0.00,,,0.00,Wunderground v.1.15,2013-08-18 21:11:00,
2013-08-18 16:16:00,81.0,60.0,30.06,South,183,4.0,7.0,49,0.00,,,0.00,Wunderground v.1.15,2013-08-18 21:16:00,
2013-08-18 16:21:00,80.6,58.5,30.06,South,184,3.0,8.0,47,0.00,,,0.00,Wunderground v.1.15,2013-08-18 21:21:00,
2013-08-18 16:26:00,80.2,59.3,30.06,South,184,5.0,8.0,49,0.00,,,0.00,Wunderground v.1.15,2013-08-18 21:26:00,
2013-08-18 16:31:00,80.5,59.0,30.06,South,179,0.0,3.0,48,0.00,,,0.00,Wunderground v.1.15,2013-08-18 21:31:00,
2013-08-18 16:36:00,80.6,58.5,30.06,South,175,7.0,10.0,47,0.00,,,0.00,Wunderground v.1.15,2013-08-18 21:36:00,
2013-08-18 16:41:00,80.7,59.8,30.06,South,175,5.0,8.0,49,0.00,,,0.00,Wunderground v.1.15,2013-08-18 21:41:00,
2013-08-18 16:46:00,80.5,60.1,30.06,South,175,0.0,8.0,50,0.00,,,0.00,Wunderground v.1.15,2013-08-18 21:46:00,
2013-08-18 16:51:00,79.8,58.9,30.06,South,175,0.0,2.0,49,0.00,,,0.00,Wunderground v.1.15,2013-08-18 21:51:00,
2013-08-18 16:56:00,79.6,59.3,30.06,South,175,0.0,2.0,50,0.00,,,0.00,Wunderground v.1.15,2013-08-18 21:56:00,
2013-08-18 17:01:00,80.0,58.5,30.06,South,175,0.0,0.0,48,0.00,,,0.00,Wunderground v.1.15,2013-08-18 22:01:00,
2013-08-18 17:06:00,80.4,59.5,30.06,South,175,0.0,0.0,49,0.00,,,0.00,Wunderground v.1.15,2013-08-18 22:06:00,
2013-08-18 17:11:00,80.5,59.6,30.06,South,175,0.0,0.0,49,0.00,,,0.00,Wunderground v.1.15,2013-08-18 22:11:00,
2013-08-18 17:16:00,80.0,60.2,30.06,South,171,0.0,0.0,51,0.00,,,0.00,Wunderground v.1.15,2013-08-18 22:16:00,
2013-08-18 17:21:00,79.2,60.1,30.06,South,171,0.0,0.0,52,0.00,,,0.00,Wunderground v.1.15,2013-08-18 22:21:00,
2013-08-18 17:26:00,79.3,58.5,30.06,South,171,0.0,0.0,49,0.00,,,0.00,Wunderground v.1.15,2013-08-18 22:26:00,
2013-08-18 17:31:00,79.6,59.3,30.06,South,171,0.0,0.0,50,0.00,,,0.00,Wunderground v.1.15,2013-08-18 22:31:00,
2013-08-18 17:36:00,79.6,58.8,30.06,SSW,209,0.0,3.0,49,0.00,,,0.00,Wunderground v.1.15,2013-08-18 22:36:00,
2013-08-18 17:41:00,79.6,59.3,30.06,SSW,209,0.0,0.0,50,0.00,,,0.00,Wunderground v.1.15,2013-08-18 22:41:00,
2013-08-18 17:46:00,79.6,59.9,30.06,SSW,209,0.0,0.0,51,0.00,,,0.00,Wunderground v.1.15,2013-08-18 22:46:00,
2013-08-18 17:51:00,79.7,60.5,30.05,SSW,209,0.0,0.0,52,0.00,,,0.00,Wunderground v.1.15,2013-08-18 22:51:00,
2013-08-18 17:56:00,80.0,60.2,30.05,SSW,209,0.0,0.0,51,0.00,,,0.00,Wunderground v.1.15,2013-08-18 22:56:00,
2013-08-18 18:01:00,80.5,61.3,30.05,SSW,209,0.0,0.0,52,0.00,,,0.00,Wunderground v.1.15,2013-08-18 23:01:00,
2013-08-18 18:06:00,80.4,60.1,30.05,SSW,208,0.0,2.0,50,0.00,,,0.00,Wunderground v.1.15,2013-08-18 23:06:00,
2013-08-18 18:11:00,80.0,60.2,30.05,SSW,200,0.0,0.0,51,0.00,,,0.00,Wunderground v.1.15,2013-08-18 23:11:00,
2013-08-18 18:16:00,79.7,60.5,30.05,SSW,200,0.0,1.0,52,0.00,,,0.00,Wunderground v.1.15,2013-08-18 23:16:00,
2013-08-18 18:21:00,79.5,59.8,30.05,SSW,200,0.0,0.0,51,0.00,,,0.00,Wunderground v.1.15,2013-08-18 23:21:00,
2013-08-18 18:26:00,79.4,59.7,30.05,SSW,200,0.0,0.0,51,0.00,,,0.00,Wunderground v.1.15,2013-08-18 23:26:00,
2013-08-18 18:32:00,79.3,61.2,30.04,SSW,200,0.0,0.0,54,0.00,,,0.00,Wunderground v.1.15,2013-08-18 23:32:00,
2013-08-18 18:37:00,79.2,62.1,30.04,SSW,200,0.0,0.0,56,0.00,,,0.00,Wunderground v.1.15,2013-08-18 23:37:00,
2013-08-18 18:42:00,79.0,62.0,30.04,SSW,200,0.0,0.0,56,0.00,,,0.00,Wunderground v.1.15,2013-08-18 23:42:00,
2013-08-18 18:47:00,78.8,61.3,30.04,SSW,200,0.0,0.0,55,0.00,,,0.00,Wunderground v.1.15,2013-08-18 23:47:00,
2013-08-18 18:52:00,78.7,61.7,30.04,SSW,200,0.0,0.0,56,0.00,,,0.00,Wunderground v.1.15,2013-08-18 23:52:00,
2013-08-18 18:57:00,78.6,61.6,30.04,SSW,200,0.0,0.0,56,0.00,,,0.00,Wunderground v.1.15,2013-08-18 23:57:00,
2013-08-18 19:02:00,78.5,60.5,30.04,SSW,194,0.0,0.0,54,0.00,,,0.00,Wunderground v.1.15,2013-08-19 00:02:00,
2013-08-18 19:07:00,78.5,61.0,30.04,SSW,194,0.0,0.0,55,0.00,,,0.00,Wunderground v.1.15,2013-08-19 00:07:00,
2013-08-18 19:12:00,78.3,60.8,30.04,SSW,194,0.0,0.0,55,0.00,,,0.00,Wunderground v.1.15,2013-08-19 00:12:00,
2013-08-18 19:17:00,78.0,62.0,30.03,SSW,194,0.0,0.0,58,0.00,,,0.00,Wunderground v.1.15,2013-08-19 00:17:00,
2013-08-18 19:22:00,77.6,62.1,30.03,SSW,194,0.0,0.0,59,0.00,,,0.00,Wunderground v.1.15,2013-08-19 00:22:00,
2013-08-18 19:27:00,77.1,62.1,30.03,SSW,194,0.0,0.0,60,0.00,,,0.00,Wunderground v.1.15,2013-08-19 00:27:00,
2013-08-18 19:32:00,76.5,62.0,30.04,SSW,194,0.0,0.0,61,0.00,,,0.00,Wunderground v.1.15,2013-08-19 00:32:00,
2013-08-18 19:37:00,75.9,62.4,30.03,SSW,194,0.0,0.0,63,0.00,,,0.00,Wunderground v.1.15,2013-08-19 00:37:00,
2013-08-18 19:42:00,75.3,62.3,30.03,SSW,194,0.0,0.0,64,0.00,,,0.00,Wunderground v.1.15,2013-08-19 00:42:00,
2013-08-18 19:47:00,74.6,62.9,30.03,SSW,194,0.0,0.0,67,0.00,,,0.00,Wunderground v.1.15,2013-08-19 00:47:00,
2013-08-18 19:52:00,74.0,62.8,30.03,SSW,194,0.0,0.0,68,0.00,,,0.00,Wunderground v.1.15,2013-08-19 00:52:00,
2013-08-18 19:57:00,73.6,62.4,30.03,ESE,110,0.0,0.0,68,0.00,,,0.00,Wunderground v.1.15,2013-08-19 00:57:00,
2013-08-18 20:02:00,73.1,62.3,30.03,ESE,110,0.0,0.0,69,0.00,,,0.00,Wunderground v.1.15,2013-08-19 01:02:00,
2013-08-18 20:07:00,72.6,62.3,30.03,ESE,110,0.0,0.0,70,0.00,,,0.00,Wunderground v.1.15,2013-08-19 01:07:00,
2013-08-18 20:12:00,72.0,62.1,30.03,ESE,110,0.0,0.0,71,0.00,,,0.00,Wunderground v.1.15,2013-08-19 01:12:00,
2013-08-18 20:17:00,71.3,61.8,30.03,ESE,110,0.0,0.0,72,0.00,,,0.00,Wunderground v.1.15,2013-08-19 01:17:00,
2013-08-18 20:22:00,70.7,62.0,30.03,ESE,110,0.0,0.0,74,0.00,,,0.00,Wunderground v.1.15,2013-08-19 01:22:00,
2013-08-18 20:27:00,70.3,61.6,30.03,ESE,110,0.0,0.0,74,0.00,,,0.00,Wunderground v.1.15,2013-08-19 01:27:00,
2013-08-18 20:32:00,70.0,61.3,30.03,ESE,110,0.0,0.0,74,0.00,,,0.00,Wunderground v.1.15,2013-08-19 01:32:00,
2013-08-18 20:38:00,69.9,61.2,30.03,ESE,110,0.0,0.0,74,0.00,,,0.00,Wunderground v.1.15,2013-08-19 01:38:00,
2013-08-18 20:43:00,69.8,61.1,30.03,ESE,110,0.0,0.0,74,0.00,,,0.00,Wunderground v.1.15,2013-08-19 01:43:00,
2013-08-18 20:48:00,69.5,60.8,30.03,ESE,110,0.0,0.0,74,0.00,,,0.00,Wunderground v.1.15,2013-08-19 01:48:00,
2013-08-18 20:53:00,69.2,60.6,30.03,ESE,110,0.0,0.0,74,0.00,,,0.00,Wunderground v.1.15,2013-08-19 01:53:00,
2013-08-18 20:58:00,68.5,59.9,30.04,ESE,110,0.0,0.0,74,0.00,,,0.00,Wunderground v.1.15,2013-08-19 01:58:00,
2013-08-18 21:03:00,68.1,60.2,30.04,ESE,110,0.0,0.0,76,0.00,,,0.00,Wunderground v.1.15,2013-08-19 02:03:00,
2013-08-18 21:08:00,67.4,60.3,30.04,ESE,110,0.0,0.0,78,0.00,,,0.00,Wunderground v.1.15,2013-08-19 02:08:00,
2013-08-18 21:13:00,66.7,60.3,30.04,ESE,110,0.0,0.0,80,0.00,,,0.00,Wunderground v.1.15,2013-08-19 02:13:00,
2013-08-18 21:18:00,66.4,60.4,30.04,ESE,110,0.0,0.0,81,0.00,,,0.00,Wunderground v.1.15,2013-08-19 02:18:00,
2013-08-18 21:23:00,66.3,60.3,30.04,ESE,110,0.0,0.0,81,0.00,,,0.00,Wunderground v.1.15,2013-08-19 02:23:00,
2013-08-18 21:28:00,66.4,60.4,30.04,ESE,110,0.0,0.0,81,0.00,,,0.00,Wunderground v.1.15,2013-08-19 02:28:00,
2013-08-18 21:33:00,66.5,60.5,30.04,ESE,110,0.0,0.0,81,0.00,,,0.00,Wunderground v.1.15,2013-08-19 02:33:00,
2013-08-18 21:38:00,66.6,60.2,30.04,ESE,110,0.0,0.0,80,0.00,,,0.00,Wunderground v.1.15,2013-08-19 02:38:00,
2013-08-18 21:43:00,66.7,60.3,30.04,ESE,110,0.0,0.0,80,0.00,,,0.00,Wunderground v.1.15,2013-08-19 02:43:00,
2013-08-18 21:48:00,66.5,59.8,30.05,ESE,110,0.0,0.0,79,0.00,,,0.00,Wunderground v.1.15,2013-08-19 02:48:00,
2013-08-18 21:53:00,66.1,59.4,30.05,ESE,110,0.0,0.0,79,0.00,,,0.00,Wunderground v.1.15,2013-08-19 02:53:00,
2013-08-18 21:58:00,65.6,58.9,30.04,ESE,110,0.0,0.0,79,0.00,,,0.00,Wunderground v.1.15,2013-08-19 02:58:00,
2013-08-18 22:03:00,65.3,59.0,30.05,ESE,110,0.0,0.0,80,0.00,,,0.00,Wunderground v.1.15,2013-08-19 03:03:00,
2013-08-18 22:08:00,65.1,59.1,30.04,ESE,110,0.0,0.0,81,0.00,,,0.00,Wunderground v.1.15,2013-08-19 03:08:00,
2013-08-18 22:13:00,64.9,58.9,30.04,ESE,110,0.0,0.0,81,0.00,,,0.00,Wunderground v.1.15,2013-08-19 03:13:00,
2013-08-18 22:18:00,64.6,59.0,30.04,ESE,110,0.0,0.0,82,0.00,,,0.00,Wunderground v.1.15,2013-08-19 03:18:00,
2013-08-18 22:23:00,64.3,59.0,30.04,ESE,110,0.0,0.0,83,0.00,,,0.00,Wunderground v.1.15,2013-08-19 03:23:00,
2013-08-18 22:28:00,64.3,59.4,30.05,ESE,110,0.0,0.0,84,0.00,,,0.00,Wunderground v.1.15,2013-08-19 03:28:00,
2013-08-18 22:33:00,64.2,59.3,30.05,ESE,110,0.0,0.0,84,0.00,,,0.00,Wunderground v.1.15,2013-08-19 03:33:00,
2013-08-18 22:38:00,64.2,59.3,30.04,ESE,110,0.0,0.0,84,0.00,,,0.00,Wunderground v.1.15,2013-08-19 03:38:00,
2013-08-18 22:43:00,64.0,59.1,30.04,ESE,110,0.0,0.0,84,0.00,,,0.00,Wunderground v.1.15,2013-08-19 03:43:00,
2013-08-18 22:48:00,64.0,59.4,30.05,ESE,110,0.0,0.0,85,0.00,,,0.00,Wunderground v.1.15,2013-08-19 03:48:00,
2013-08-18 22:53:00,63.9,59.3,30.04,ESE,110,0.0,0.0,85,0.00,,,0.00,Wunderground v.1.15,2013-08-19 03:53:00,
2013-08-18 22:58:00,63.6,58.7,30.04,ESE,110,0.0,0.0,84,0.00,,,0.00,Wunderground v.1.15,2013-08-19 03:58:00,
2013-08-18 23:01:00,63.5,58.9,30.04,ESE,110,0.0,0.0,85,0.00,,,0.00,Wunderground v.1.15,2013-08-19 04:01:00,
2013-08-18 23:06:00,63.2,58.6,30.04,ESE,110,0.0,0.0,85,0.00,,,0.00,Wunderground v.1.15,2013-08-19 04:06:00,
2013-08-18 23:11:00,63.1,58.5,30.04,ESE,110,0.0,0.0,85,0.00,,,0.00,Wunderground v.1.15,2013-08-19 04:11:00,
2013-08-18 23:16:00,63.1,58.8,30.04,ESE,110,0.0,0.0,86,0.00,,,0.00,Wunderground v.1.15,2013-08-19 04:16:00,
2013-08-18 23:21:00,63.0,58.7,30.04,ESE,110,0.0,0.0,86,0.00,,,0.00,Wunderground v.1.15,2013-08-19 04:21:00,
2013-08-18 23:26:00,62.8,58.2,30.04,ESE,110,0.0,0.0,85,0.00,,,0.00,Wunderground v.1.15,2013-08-19 04:26:00,
2013-08-18 23:31:00,62.8,58.5,30.04,ESE,110,0.0,0.0,86,0.00,,,0.00,Wunderground v.1.15,2013-08-19 04:31:00,
2013-08-18 23:36:00,62.7,58.5,30.04,ESE,110,0.0,0.0,86,0.00,,,0.00,Wunderground v.1.15,2013-08-19 04:36:00,
2013-08-18 23:41:00,62.6,58.4,30.04,ESE,110,0.0,0.0,86,0.00,,,0.00,Wunderground v.1.15,2013-08-19 04:41:00,
2013-08-18 23:46:00,62.3,57.7,30.04,ESE,110,0.0,0.0,85,0.00,,,0.00,Wunderground v.1.15,2013-08-19 04:46:00,
2013-08-18 23:51:00,62.2,57.6,30.04,ESE,110,0.0,0.0,85,0.00,,,0.00,Wunderground v.1.15,2013-08-19 04:51:00,
2013-08-18 23:56:00,62.0,57.8,30.04,ESE,110,0.0,0.0,86,0.00,,,0.00,Wunderground v.1.15,2013-08-19 04:56:00,